Terminal Aerodrome Forecast
Issued by NWS

Home | Current Version | Previous Version | Text Only | Print | Product List | Glossary Off
Versions: 1 2 3 4 5 6 7 8 9 10 11 12 13 14

842
FTUS43 KMPX 251732
TAFAXN
TAF
KAXN 251732Z 2518/2618 32015G23KT P6SM SCT050
     FM260100 32005KT P6SM SKC
     FM261500 35008KT P6SM SKC=

USA.gov is the U.S. government's official web portal to all federal, state and local government web resources and services.